Terminal Aerodrome Forecast
Issued by NWS

Home | Current Version | Previous Version | Text Only | Print | Product List | Glossary On
Versions: 1 2 3 4 5 6 7 8 9 10 11 12 13 14 15 16 17 18 19
646
FTUS41 KBTV 062320
TAFMSS
TAF
KMSS 062320Z 0700/0724 23012KT P6SM VCSH OVC100
     FM070600 24011KT P6SM OVC040
     FM071500 23006KT P6SM OVC025
     FM072000 08007KT P6SM OVC025=

USA.gov is the U.S. government's official web portal to all federal, state and local government web resources and services.